sensor_id;sensor_type;location;lat;lon;timestamp;pressure;altitude;pressure_sealevel;temperature;humidity
38558;BME280;24333;42.626;23.308;2023-05-19T01:39:30;70470.88;;;-148.95;100.00
38558;BME280;24333;42.626;23.308;2023-05-19T01:41:58;70470.88;;;-148.95;100.00
38558;BME280;24333;42.626;23.308;2023-05-19T01:44:25;70479.19;;;-148.95;100.00
38558;BME280;24333;42.626;23.308;2023-05-19T01:46:51;70475.03;;;-148.95;100.00
38558;BME280;24333;42.626;23.308;2023-05-19T01:49:17;70479.19;;;-148.95;100.00
38558;BME280;24333;42.626;23.308;2023-05-19T01:51:42;70495.78;;;-148.95;100.00
38558;BME280;24333;42.626;23.308;2023-05-19T01:54:08;70489.56;;;-148.95;100.00
38558;BME280;24333;42.626;23.308;2023-05-19T01:56:53;70487.47;;;-148.95;100.00
38558;BME280;24333;42.626;23.308;2023-05-19T01:59:41;70479.19;;;-148.95;100.00
38558;BME280;24333;42.626;23.308;2023-05-19T02:04:56;70477.09;;;-148.95;100.00
38558;BME280;24333;42.626;23.308;2023-05-19T02:07:31;70470.88;;;-148.95;100.00
38558;BME280;24333;42.626;23.308;2023-05-19T02:10:12;70458.44;;;-148.95;100.00
38558;BME280;24333;42.626;23.308;2023-05-19T02:12:40;70454.28;;;-148.95;100.00
38558;BME280;24333;42.626;23.308;2023-05-19T02:15:15;70454.28;;;-148.95;100.00
38558;BME280;24333;42.626;23.308;2023-05-19T02:17:43;70450.13;;;-148.95;100.00
38558;BME280;24333;42.626;23.308;2023-05-19T02:20:13;70454.28;;;-148.95;100.00
38558;BME280;24333;42.626;23.308;2023-05-19T02:22:39;70454.28;;;-148.95;100.00
38558;BME280;24333;42.626;23.308;2023-05-19T02:25:06;70458.44;;;-148.95;100.00
38558;BME280;24333;42.626;23.308;2023-05-19T02:27:33;70470.88;;;-148.95;100.00
38558;BME280;24333;42.626;23.308;2023-05-19T02:29:58;70475.03;;;-148.95;100.00
38558;BME280;24333;42.626;23.308;2023-05-19T02:32:23;70466.72;;;-148.95;100.00
38558;BME280;24333;42.626;23.308;2023-05-19T02:34:49;70470.88;;;-148.95;100.00
38558;BME280;24333;42.626;23.308;2023-05-19T02:37:15;70479.19;;;-148.95;100.00
38558;BME280;24333;42.626;23.308;2023-05-19T02:39:41;70485.41;;;-148.95;100.00
38558;BME280;24333;42.626;23.308;2023-05-19T02:42:07;70487.47;;;-148.95;100.00
38558;BME280;24333;42.626;23.308;2023-05-19T02:44:34;70485.41;;;-148.95;100.00
38558;BME280;24333;42.626;23.308;2023-05-19T02:46:59;70489.56;;;-148.95;100.00
38558;BME280;24333;42.626;23.308;2023-05-19T02:49:26;70493.72;;;-148.95;100.00
38558;BME280;24333;42.626;23.308;2023-05-19T02:51:51;70497.84;;;-148.95;100.00
38558;BME280;24333;42.626;23.308;2023-05-19T02:54:17;70502.00;;;-148.95;100.00
38558;BME280;24333;42.626;23.308;2023-05-19T02:56:42;70508.22;;;-148.95;100.00
38558;BME280;24333;42.626;23.308;2023-05-19T02:59:08;70508.22;;;-148.95;100.00
38558;BME280;24333;42.626;23.308;2023-05-19T03:01:33;70516.53;;;-148.95;100.00
38558;BME280;24333;42.626;23.308;2023-05-19T03:03:58;70526.91;;;-148.95;100.00
38558;BME280;24333;42.626;23.308;2023-05-19T03:06:24;70520.69;;;-148.95;100.00
38558;BME280;24333;42.626;23.308;2023-05-19T03:08:50;70537.28;;;-148.95;100.00
38558;BME280;24333;42.626;23.308;2023-05-19T03:11:15;70531.06;;;-148.95;100.00
38558;BME280;24333;42.626;23.308;2023-05-19T03:13:50;70537.28;;;-148.95;100.00
38558;BME280;24333;42.626;23.308;2023-05-19T03:16:17;70543.50;;;-148.95;100.00
38558;BME280;24333;42.626;23.308;2023-05-19T03:18:43;70537.28;;;-148.95;100.00
38558;BME280;24333;42.626;23.308;2023-05-19T03:21:08;70528.97;;;-148.95;100.00
38558;BME280;24333;42.626;23.308;2023-05-19T03:23:33;70526.91;;;-148.95;100.00
38558;BME280;24333;42.626;23.308;2023-05-19T03:25:59;70537.28;;;-148.95;100.00
38558;BME280;24333;42.626;23.308;2023-05-19T03:28:25;70533.13;;;-148.95;100.00
38558;BME280;24333;42.626;23.308;2023-05-19T03:30:53;70531.06;;;-148.95;100.00
38558;BME280;24333;42.626;23.308;2023-05-19T03:33:18;70531.06;;;-148.95;100.00
38558;BME280;24333;42.626;23.308;2023-05-19T03:35:44;70516.53;;;-148.95;100.00
38558;BME280;24333;42.626;23.308;2023-05-19T03:38:10;70506.16;;;-148.95;100.00
38558;BME280;24333;42.626;23.308;2023-05-19T03:40:37;70499.94;;;-148.95;100.00
38558;BME280;24333;42.626;23.308;2023-05-19T03:43:06;70491.63;;;-148.95;100.00
38558;BME280;24333;42.626;23.308;2023-05-19T03:45:32;70475.03;;;-148.95;100.00
38558;BME280;24333;42.626;23.308;2023-05-19T03:47:57;70466.72;;;-148.95;100.00
38558;BME280;24333;42.626;23.308;2023-05-19T03:50:22;70460.50;;;-148.95;100.00
38558;BME280;24333;42.626;23.308;2023-05-19T03:52:48;70450.13;;;-148.95;100.00
38558;BME280;24333;42.626;23.308;2023-05-19T03:55:13;70435.63;;;-148.95;100.00
38558;BME280;24333;42.626;23.308;2023-05-19T03:57:39;70421.09;;;-148.95;100.00
38558;BME280;24333;42.626;23.308;2023-05-19T04:00:10;70402.41;;;-148.95;100.00
38558;BME280;24333;42.626;23.308;2023-05-19T04:02:36;70392.03;;;-148.95;100.00
38558;BME280;24333;42.626;23.308;2023-05-19T04:05:01;70375.44;;;-148.95;100.00
38558;BME280;24333;42.626;23.308;2023-05-19T04:07:29;70367.16;;;-148.95;100.00
38558;BME280;24333;42.626;23.308;2023-05-19T04:09:55;70358.84;;;-148.95;100.00
38558;BME280;24333;42.626;23.308;2023-05-19T04:12:20;70338.09;;;-148.95;100.00
38558;BME280;24333;42.626;23.308;2023-05-19T04:14:46;70325.66;;;-148.95;100.00
38558;BME280;24333;42.626;23.308;2023-05-19T04:17:11;70333.94;;;-148.95;100.00
38558;BME280;24333;42.626;23.308;2023-05-19T04:19:37;70329.81;;;-148.95;100.00
38558;BME280;24333;42.626;23.308;2023-05-19T04:22:02;70317.34;;;-148.95;100.00
38558;BME280;24333;42.626;23.308;2023-05-19T04:24:27;70319.44;;;-148.95;100.00
38558;BME280;24333;42.626;23.308;2023-05-19T04:26:53;70325.66;;;-148.95;100.00
38558;BME280;24333;42.626;23.308;2023-05-19T04:29:18;70317.34;;;-148.95;100.00
38558;BME280;24333;42.626;23.308;2023-05-19T04:31:44;70313.19;;;-148.95;100.00
38558;BME280;24333;42.626;23.308;2023-05-19T04:34:10;70304.91;;;-148.95;100.00
38558;BME280;24333;42.626;23.308;2023-05-19T04:36:37;70302.84;;;-148.95;100.00
38558;BME280;24333;42.626;23.308;2023-05-19T04:39:17;70296.59;;;-148.95;100.00
38558;BME280;24333;42.626;23.308;2023-05-19T04:41:43;70284.16;;;-148.95;100.00
38558;BME280;24333;42.626;23.308;2023-05-19T04:44:10;70280.00;;;-148.95;100.00
38558;BME280;24333;42.626;23.308;2023-05-19T04:50:10;70290.38;;;-148.95;100.00
38558;BME280;24333;42.626;23.308;2023-05-19T04:52:35;70292.47;;;-148.95;100.00
38558;BME280;24333;42.626;23.308;2023-05-19T04:55:05;70288.31;;;-148.95;100.00
38558;BME280;24333;42.626;23.308;2023-05-19T04:57:30;70282.09;;;-148.95;100.00
38558;BME280;24333;42.626;23.308;2023-05-19T04:59:56;70282.09;;;-148.95;100.00
38558;BME280;24333;42.626;23.308;2023-05-19T05:02:25;70255.13;;;-148.95;100.00
38558;BME280;24333;42.626;23.308;2023-05-19T05:39:22;70143.09;;;-148.95;100.00
38558;BME280;24333;42.626;23.308;2023-05-19T05:41:47;70155.53;;;-148.95;100.00
38558;BME280;24333;42.626;23.308;2023-05-19T05:44:14;70157.59;;;-148.95;100.00
38558;BME280;24333;42.626;23.308;2023-05-19T05:46:40;70159.69;;;-148.95;100.00
38558;BME280;24333;42.626;23.308;2023-05-19T05:49:09;70163.81;;;-148.95;100.00
38558;BME280;24333;42.626;23.308;2023-05-19T05:51:36;70186.66;;;-148.95;100.00
38558;BME280;24333;42.626;23.308;2023-05-19T06:00:47;70165.91;;;-148.95;100.00
38558;BME280;24333;42.626;23.308;2023-05-19T06:03:13;70161.75;;;-148.95;100.00
38558;BME280;24333;42.626;23.308;2023-05-19T06:05:39;70157.59;;;-148.95;100.00
38558;BME280;24333;42.626;23.308;2023-05-19T06:08:05;70161.75;;;-148.95;100.00
38558;BME280;24333;42.626;23.308;2023-05-19T06:10:30;70161.75;;;-148.95;100.00
38558;BME280;24333;42.626;23.308;2023-05-19T06:12:56;70159.69;;;-148.95;100.00
38558;BME280;24333;42.626;23.308;2023-05-19T06:15:43;70155.53;;;-148.95;100.00
38558;BME280;24333;42.626;23.308;2023-05-19T06:18:08;70130.63;;;-148.95;100.00
38558;BME280;24333;42.626;23.308;2023-05-19T06:20:34;70105.75;;;-148.95;100.00
38558;BME280;24333;42.626;23.308;2023-05-19T06:23:00;70097.44;;;-148.95;100.00
38558;BME280;24333;42.626;23.308;2023-05-19T06:25:59;70080.84;;;-148.95;100.00
38558;BME280;24333;42.626;23.308;2023-05-19T06:44:24;70070.47;;;-148.95;100.00
38558;BME280;24333;42.626;23.308;2023-05-19T06:54:38;70097.44;;;-148.95;100.00
38558;BME280;24333;42.626;23.308;2023-05-19T06:57:05;70074.63;;;-148.95;100.00
38558;BME280;24333;42.626;23.308;2023-05-19T07:07:43;70093.28;;;-148.95;93.47
38558;BME280;24333;42.626;23.308;2023-05-19T07:10:12;70055.94;;;-148.95;92.83
38558;BME280;24333;42.626;23.308;2023-05-19T07:12:38;70020.69;;;-148.95;94.61
38558;BME280;24333;42.626;23.308;2023-05-19T07:15:04;69997.88;;;-148.95;92.63
38558;BME280;24333;42.626;23.308;2023-05-19T07:20:35;69993.72;;;-148.95;90.29
38558;BME280;24333;42.626;23.308;2023-05-19T07:23:01;70010.31;;;-148.95;86.34
38558;BME280;24333;42.626;23.308;2023-05-19T07:25:31;69997.88;;;-148.95;91.44
38558;BME280;24333;42.626;23.308;2023-05-19T07:34:42;69898.28;;;-148.95;81.55
38558;BME280;24333;42.626;23.308;2023-05-19T07:37:09;69858.88;;;-148.95;81.56
38558;BME280;24333;42.626;23.308;2023-05-19T07:39:35;69827.75;;;-148.95;76.12
38558;BME280;24333;42.626;23.308;2023-05-19T07:42:03;69838.13;;;-148.95;69.75
38558;BME280;24333;42.626;23.308;2023-05-19T07:44:38;69863.03;;;-148.95;69.50
38558;BME280;24333;42.626;23.308;2023-05-19T07:52:20;69784.19;;;-148.95;71.41
38558;BME280;24333;42.626;23.308;2023-05-19T07:54:47;69744.78;;;-148.95;72.19
38558;BME280;24333;42.626;23.308;2023-05-19T07:57:14;69715.75;;;-148.95;71.17
38558;BME280;24333;42.626;23.308;2023-05-19T07:59:40;69686.69;;;-148.95;70.61
38558;BME280;24333;42.626;23.308;2023-05-19T08:02:06;69699.16;;;-148.95;70.03
38558;BME280;24333;42.626;23.308;2023-05-19T09:21:28;69690.84;;;-148.95;63.91
38558;BME280;24333;42.626;23.308;2023-05-19T09:24:10;69703.28;;;-148.95;64.23
38558;BME280;24333;42.626;23.308;2023-05-19T09:26:45;69672.19;;;-148.95;68.33
38558;BME280;24333;42.626;23.308;2023-05-19T09:29:19;69659.72;;;-148.95;68.26
38558;BME280;24333;42.626;23.308;2023-05-19T09:32:09;69653.50;;;-148.95;63.35
38558;BME280;24333;42.626;23.308;2023-05-19T11:05:07;69155.72;;;-148.95;38.57
38558;BME280;24333;42.626;23.308;2023-05-19T11:07:33;69143.28;;;-148.95;42.12
38558;BME280;24333;42.626;23.308;2023-05-19T11:10:04;69149.50;;;-148.95;41.58
38558;BME280;24333;42.626;23.308;2023-05-19T11:12:41;69025.06;;;-148.95;46.92
38558;BME280;24333;42.626;23.308;2023-05-19T11:15:13;68855.00;;;-148.95;40.14
38558;BME280;24333;42.626;23.308;2023-05-19T11:17:39;68830.09;;;-148.95;37.36
38558;BME280;24333;42.626;23.308;2023-05-19T11:20:08;68803.16;;;-148.95;34.91
38558;BME280;24333;42.626;23.308;2023-05-19T11:23:08;68796.94;;;-148.95;33.98
38558;BME280;24333;42.626;23.308;2023-05-19T11:25:49;68753.38;;;-148.95;37.05
38558;BME280;24333;42.626;23.308;2023-05-19T11:28:22;68730.56;;;-148.95;33.78
38558;BME280;24333;42.626;23.308;2023-05-19T11:30:57;68863.28;;;-148.95;33.39
38558;BME280;24333;42.626;23.308;2023-05-19T11:33:24;68840.47;;;-148.95;35.40
38558;BME280;24333;42.626;23.308;2023-05-19T11:36:11;68840.47;;;-148.95;36.29
38558;BME280;24333;42.626;23.308;2023-05-19T11:38:38;68855.00;;;-148.95;35.33
38558;BME280;24333;42.626;23.308;2023-05-19T11:41:04;68873.66;;;-148.95;35.49
38558;BME280;24333;42.626;23.308;2023-05-19T11:43:29;68879.88;;;-148.95;34.99
38558;BME280;24333;42.626;23.308;2023-05-19T11:45:55;68877.81;;;-148.95;43.15
38558;BME280;24333;42.626;23.308;2023-05-19T11:48:20;68906.84;;;-148.95;43.28
38558;BME280;24333;42.626;23.308;2023-05-19T11:50:46;68958.69;;;-148.95;46.47
38558;BME280;24333;42.626;23.308;2023-05-19T11:53:12;69060.31;;;-148.95;53.89
38558;BME280;24333;42.626;23.308;2023-05-19T12:03:35;69612.03;;;-148.95;79.30
38558;BME280;24333;42.626;23.308;2023-05-19T12:06:02;69732.34;;;-148.95;76.53
38558;BME280;24333;42.626;23.308;2023-05-19T12:08:35;69894.13;;;-148.95;71.53
38558;BME280;24333;42.626;23.308;2023-05-19T12:13:43;70018.59;;;-148.95;94.61
38558;BME280;24333;42.626;23.308;2023-05-19T12:19:11;70132.72;;;-148.95;100.00
38558;BME280;24333;42.626;23.308;2023-05-19T12:24:14;70188.72;;;-148.95;100.00
38558;BME280;24333;42.626;23.308;2023-05-19T12:26:40;70197.03;;;-148.95;100.00
38558;BME280;24333;42.626;23.308;2023-05-19T12:29:05;70205.31;;;-148.95;100.00
38558;BME280;24333;42.626;23.308;2023-05-19T12:31:32;70213.63;;;-148.95;100.00
38558;BME280;24333;42.626;23.308;2023-05-19T12:33:58;70215.69;;;-148.95;100.00
38558;BME280;24333;42.626;23.308;2023-05-19T12:36:27;70197.03;;;-148.95;100.00
38558;BME280;24333;42.626;23.308;2023-05-19T12:38:54;70167.97;;;-148.95;100.00
38558;BME280;24333;42.626;23.308;2023-05-19T12:41:22;70149.31;;;-148.95;100.00
38558;BME280;24333;42.626;23.308;2023-05-19T12:43:48;70126.47;;;-148.95;100.00
38558;BME280;24333;42.626;23.308;2023-05-19T12:46:17;70105.75;;;-148.95;100.00
38558;BME280;24333;42.626;23.308;2023-05-19T12:48:43;70078.78;;;-148.95;100.00
38558;BME280;24333;42.626;23.308;2023-05-19T12:51:17;70039.34;;;-148.95;100.00
38558;BME280;24333;42.626;23.308;2023-05-19T12:53:49;70006.16;;;-148.95;100.00
38558;BME280;24333;42.626;23.308;2023-05-19T12:56:14;69989.56;;;-148.95;100.00
38558;BME280;24333;42.626;23.308;2023-05-19T13:20:58;69751.00;;;-148.95;78.94
38558;BME280;24333;42.626;23.308;2023-05-19T13:23:28;69746.84;;;-148.95;80.50
38558;BME280;24333;42.626;23.308;2023-05-19T13:28:36;69744.78;;;-148.95;78.26
38558;BME280;24333;42.626;23.308;2023-05-19T13:31:03;69734.41;;;-148.95;80.14
38558;BME280;24333;42.626;23.308;2023-05-19T13:33:59;69717.81;;;-148.95;78.88
38558;BME280;24333;42.626;23.308;2023-05-19T13:36:25;69709.50;;;-148.95;79.02
38558;BME280;24333;42.626;23.308;2023-05-19T13:38:52;69707.44;;;-148.95;79.28
38558;BME280;24333;42.626;23.308;2023-05-19T13:41:27;69686.69;;;-148.95;83.27
38558;BME280;24333;42.626;23.308;2023-05-19T13:50:39;69647.28;;;-148.95;78.24
38558;BME280;24333;42.626;23.308;2023-05-19T13:53:05;69653.50;;;-148.95;78.00
38558;BME280;24333;42.626;23.308;2023-05-19T13:55:56;69657.66;;;-148.95;82.94
38558;BME280;24333;42.626;23.308;2023-05-19T13:58:23;69665.97;;;-148.95;88.73
38558;BME280;24333;42.626;23.308;2023-05-19T14:01:06;69692.91;;;-148.95;83.49
38558;BME280;24333;42.626;23.308;2023-05-19T14:03:35;69709.50;;;-148.95;78.09
38558;BME280;24333;42.626;23.308;2023-05-19T14:06:40;69709.50;;;-148.95;79.40
38558;BME280;24333;42.626;23.308;2023-05-19T14:09:06;69711.59;;;-148.95;79.76
38558;BME280;24333;42.626;23.308;2023-05-19T14:11:32;69728.19;;;-148.95;78.48
38558;BME280;24333;42.626;23.308;2023-05-19T14:13:57;69721.97;;;-148.95;76.51
38558;BME280;24333;42.626;23.308;2023-05-19T14:16:25;69690.84;;;-148.95;81.52
38558;BME280;24333;42.626;23.308;2023-05-19T14:19:17;69672.19;;;-148.95;69.63
38558;BME280;24333;42.626;23.308;2023-05-19T14:21:50;69647.28;;;-148.95;66.41
38558;BME280;24333;42.626;23.308;2023-05-19T14:24:27;69639.00;;;-148.95;63.22
38558;BME280;24333;42.626;23.308;2023-05-19T14:26:56;69636.91;;;-148.95;64.50
38558;BME280;24333;42.626;23.308;2023-05-19T14:29:45;69630.69;;;-148.95;64.09
38558;BME280;24333;42.626;23.308;2023-05-19T15:31:31;69381.78;;;-148.95;43.60
38558;BME280;24333;42.626;23.308;2023-05-19T15:46:32;69329.94;;;-148.95;52.53
38558;BME280;24333;42.626;23.308;2023-05-19T18:45:21;70066.31;;;-148.95;100.00
38558;BME280;24333;42.626;23.308;2023-05-19T19:06:08;70130.63;;;-148.95;100.00
38558;BME280;24333;42.626;23.308;2023-05-19T19:08:56;70147.22;;;-148.95;100.00
38558;BME280;24333;42.626;23.308;2023-05-19T19:11:22;70145.16;;;-148.95;100.00
38558;BME280;24333;42.626;23.308;2023-05-19T19:14:21;70159.69;;;-148.95;100.00
38558;BME280;24333;42.626;23.308;2023-05-19T19:16:47;70167.97;;;-148.95;100.00
38558;BME280;24333;42.626;23.308;2023-05-19T20:31:31;70213.63;;;-148.95;100.00
38558;BME280;24333;42.626;23.308;2023-05-19T21:12:47;70375.44;;;-148.95;100.00
38558;BME280;24333;42.626;23.308;2023-05-19T21:15:20;70373.38;;;-148.95;100.00
38558;BME280;24333;42.626;23.308;2023-05-19T21:18:10;70371.28;;;-148.95;100.00
38558;BME280;24333;42.626;23.308;2023-05-19T21:21:01;70363.00;;;-148.95;100.00
38558;BME280;24333;42.626;23.308;2023-05-19T21:23:52;70365.06;;;-148.95;100.00
38558;BME280;24333;42.626;23.308;2023-05-19T21:42:15;70379.59;;;-148.95;100.00
38558;BME280;24333;42.626;23.308;2023-05-19T23:05:57;70470.88;;;-148.95;100.00
38558;BME280;24333;42.626;23.308;2023-05-19T23:08:23;70470.88;;;-148.95;100.00
